sensor_id;sensor_type;location;lat;lon;timestamp;P1;durP1;ratioP1;P2;durP2;ratioP2
49241;SDS011;35079;52.704;13.814;2023-08-30T00:02:18;4.97;;;2.95;;
49241;SDS011;35079;52.704;13.814;2023-08-30T00:04:43;3.63;;;2.70;;
49241;SDS011;35079;52.704;13.814;2023-08-30T00:07:09;4.72;;;3.10;;
49241;SDS011;35079;52.704;13.814;2023-08-30T00:09:35;5.25;;;3.13;;
49241;SDS011;35079;52.704;13.814;2023-08-30T00:12:02;7.05;;;3.35;;
49241;SDS011;35079;52.704;13.814;2023-08-30T00:14:28;7.95;;;3.85;;
49241;SDS011;35079;52.704;13.814;2023-08-30T00:16:53;49.58;;;6.03;;
49241;SDS011;35079;52.704;13.814;2023-08-30T00:19:19;13.98;;;4.93;;
49241;SDS011;35079;52.704;13.814;2023-08-30T00:21:45;19.65;;;5.38;;
49241;SDS011;35079;52.704;13.814;2023-08-30T00:24:11;21.17;;;4.95;;
49241;SDS011;35079;52.704;13.814;2023-08-30T00:26:36;15.70;;;5.05;;
49241;SDS011;35079;52.704;13.814;2023-08-30T00:29:02;15.25;;;5.70;;
49241;SDS011;35079;52.704;13.814;2023-08-30T00:31:28;10.10;;;5.18;;
49241;SDS011;35079;52.704;13.814;2023-08-30T00:33:53;9.55;;;5.93;;
49241;SDS011;35079;52.704;13.814;2023-08-30T00:36:19;8.32;;;5.47;;
49241;SDS011;35079;52.704;13.814;2023-08-30T00:38:45;8.40;;;5.60;;
49241;SDS011;35079;52.704;13.814;2023-08-30T00:41:11;7.03;;;5.00;;
49241;SDS011;35079;52.704;13.814;2023-08-30T00:43:37;6.47;;;5.20;;
49241;SDS011;35079;52.704;13.814;2023-08-30T00:46:02;12.00;;;5.38;;
49241;SDS011;35079;52.704;13.814;2023-08-30T00:48:28;10.93;;;5.43;;
49241;SDS011;35079;52.704;13.814;2023-08-30T00:50:54;9.02;;;5.95;;
49241;SDS011;35079;52.704;13.814;2023-08-30T00:53:20;7.00;;;5.25;;
49241;SDS011;35079;52.704;13.814;2023-08-30T00:55:45;6.90;;;5.35;;
49241;SDS011;35079;52.704;13.814;2023-08-30T00:58:11;10.27;;;6.38;;
49241;SDS011;35079;52.704;13.814;2023-08-30T01:00:38;6.93;;;5.40;;
49241;SDS011;35079;52.704;13.814;2023-08-30T01:03:05;9.20;;;5.90;;
49241;SDS011;35079;52.704;13.814;2023-08-30T01:05:32;8.95;;;6.15;;
49241;SDS011;35079;52.704;13.814;2023-08-30T01:07:58;8.63;;;5.70;;
49241;SDS011;35079;52.704;13.814;2023-08-30T01:10:37;11.30;;;6.03;;
49241;SDS011;35079;52.704;13.814;2023-08-30T01:13:18;5.95;;;5.35;;
49241;SDS011;35079;52.704;13.814;2023-08-30T01:15:46;6.35;;;5.70;;
49241;SDS011;35079;52.704;13.814;2023-08-30T01:18:14;6.47;;;5.15;;
49241;SDS011;35079;52.704;13.814;2023-08-30T01:20:43;10.30;;;5.65;;
49241;SDS011;35079;52.704;13.814;2023-08-30T01:23:15;8.18;;;6.00;;
49241;SDS011;35079;52.704;13.814;2023-08-30T01:28:33;8.85;;;5.82;;
49241;SDS011;35079;52.704;13.814;2023-08-30T01:31:00;10.63;;;5.90;;
49241;SDS011;35079;52.704;13.814;2023-08-30T01:33:28;7.13;;;6.10;;
49241;SDS011;35079;52.704;13.814;2023-08-30T01:35:57;7.00;;;5.90;;
49241;SDS011;35079;52.704;13.814;2023-08-30T01:38:24;7.32;;;5.40;;
49241;SDS011;35079;52.704;13.814;2023-08-30T01:40:52;6.63;;;5.15;;
49241;SDS011;35079;52.704;13.814;2023-08-30T01:43:19;5.80;;;5.30;;
49241;SDS011;35079;52.704;13.814;2023-08-30T01:45:46;9.55;;;5.60;;
49241;SDS011;35079;52.704;13.814;2023-08-30T01:48:16;6.38;;;5.78;;
49241;SDS011;35079;52.704;13.814;2023-08-30T01:50:43;8.13;;;5.53;;
49241;SDS011;35079;52.704;13.814;2023-08-30T01:53:10;8.40;;;5.30;;
49241;SDS011;35079;52.704;13.814;2023-08-30T01:55:37;7.55;;;5.60;;
49241;SDS011;35079;52.704;13.814;2023-08-30T01:58:03;6.50;;;5.82;;
49241;SDS011;35079;52.704;13.814;2023-08-30T02:00:30;10.73;;;5.97;;
49241;SDS011;35079;52.704;13.814;2023-08-30T02:02:56;10.00;;;6.20;;
49241;SDS011;35079;52.704;13.814;2023-08-30T02:05:22;10.43;;;6.13;;
49241;SDS011;35079;52.704;13.814;2023-08-30T02:07:50;10.80;;;6.03;;
49241;SDS011;35079;52.704;13.814;2023-08-30T02:10:18;6.32;;;5.70;;
49241;SDS011;35079;52.704;13.814;2023-08-30T02:12:52;8.52;;;5.75;;
49241;SDS011;35079;52.704;13.814;2023-08-30T02:15:19;7.38;;;5.72;;
49241;SDS011;35079;52.704;13.814;2023-08-30T02:17:46;7.85;;;5.68;;
49241;SDS011;35079;52.704;13.814;2023-08-30T02:20:13;7.85;;;5.55;;
49241;SDS011;35079;52.704;13.814;2023-08-30T02:22:39;6.05;;;5.45;;
49241;SDS011;35079;52.704;13.814;2023-08-30T02:25:05;8.63;;;5.75;;
49241;SDS011;35079;52.704;13.814;2023-08-30T02:27:31;8.52;;;6.28;;
49241;SDS011;35079;52.704;13.814;2023-08-30T02:29:57;11.05;;;6.13;;
49241;SDS011;35079;52.704;13.814;2023-08-30T02:32:23;9.82;;;5.93;;
49241;SDS011;35079;52.704;13.814;2023-08-30T02:34:49;9.98;;;6.35;;
49241;SDS011;35079;52.704;13.814;2023-08-30T02:37:16;9.18;;;6.30;;
49241;SDS011;35079;52.704;13.814;2023-08-30T02:39:42;12.90;;;6.63;;
49241;SDS011;35079;52.704;13.814;2023-08-30T02:42:07;12.98;;;6.57;;
49241;SDS011;35079;52.704;13.814;2023-08-30T02:44:33;9.57;;;6.40;;
49241;SDS011;35079;52.704;13.814;2023-08-30T02:46:58;9.98;;;6.55;;
49241;SDS011;35079;52.704;13.814;2023-08-30T02:49:24;6.85;;;6.15;;
49241;SDS011;35079;52.704;13.814;2023-08-30T02:51:50;11.80;;;6.40;;
49241;SDS011;35079;52.704;13.814;2023-08-30T02:54:15;12.02;;;6.47;;
49241;SDS011;35079;52.704;13.814;2023-08-30T02:56:41;7.45;;;6.50;;
49241;SDS011;35079;52.704;13.814;2023-08-30T02:59:08;9.40;;;6.00;;
49241;SDS011;35079;52.704;13.814;2023-08-30T03:01:34;11.98;;;6.35;;
49241;SDS011;35079;52.704;13.814;2023-08-30T03:04:00;7.10;;;6.40;;
49241;SDS011;35079;52.704;13.814;2023-08-30T03:06:26;7.05;;;6.35;;
49241;SDS011;35079;52.704;13.814;2023-08-30T03:08:53;6.63;;;5.97;;
49241;SDS011;35079;52.704;13.814;2023-08-30T03:11:18;7.28;;;6.10;;
49241;SDS011;35079;52.704;13.814;2023-08-30T03:13:44;10.38;;;6.72;;
49241;SDS011;35079;52.704;13.814;2023-08-30T03:16:13;8.30;;;5.97;;
49241;SDS011;35079;52.704;13.814;2023-08-30T03:18:41;9.02;;;6.28;;
49241;SDS011;35079;52.704;13.814;2023-08-30T03:21:08;11.80;;;6.45;;
49241;SDS011;35079;52.704;13.814;2023-08-30T03:23:34;10.10;;;5.93;;
49241;SDS011;35079;52.704;13.814;2023-08-30T03:26:07;8.88;;;5.43;;
49241;SDS011;35079;52.704;13.814;2023-08-30T03:28:42;7.18;;;5.80;;
49241;SDS011;35079;52.704;13.814;2023-08-30T03:31:12;7.97;;;5.32;;
49241;SDS011;35079;52.704;13.814;2023-08-30T03:33:42;8.45;;;6.05;;
49241;SDS011;35079;52.704;13.814;2023-08-30T03:36:12;6.70;;;5.88;;
49241;SDS011;35079;52.704;13.814;2023-08-30T03:38:39;8.73;;;6.10;;
49241;SDS011;35079;52.704;13.814;2023-08-30T03:41:04;10.95;;;6.65;;
49241;SDS011;35079;52.704;13.814;2023-08-30T03:43:30;12.88;;;6.18;;
49241;SDS011;35079;52.704;13.814;2023-08-30T03:45:56;9.02;;;6.13;;
49241;SDS011;35079;52.704;13.814;2023-08-30T03:48:23;10.48;;;6.18;;
49241;SDS011;35079;52.704;13.814;2023-08-30T03:50:48;12.15;;;6.22;;
49241;SDS011;35079;52.704;13.814;2023-08-30T03:53:14;10.27;;;6.75;;
49241;SDS011;35079;52.704;13.814;2023-08-30T03:55:40;10.00;;;6.20;;
49241;SDS011;35079;52.704;13.814;2023-08-30T03:58:06;9.02;;;6.70;;
49241;SDS011;35079;52.704;13.814;2023-08-30T04:00:31;10.45;;;7.32;;
49241;SDS011;35079;52.704;13.814;2023-08-30T04:02:59;10.45;;;7.90;;
49241;SDS011;35079;52.704;13.814;2023-08-30T04:05:25;8.85;;;7.45;;
49241;SDS011;35079;52.704;13.814;2023-08-30T04:07:50;12.70;;;8.20;;
49241;SDS011;35079;52.704;13.814;2023-08-30T04:10:16;10.10;;;8.90;;
49241;SDS011;35079;52.704;13.814;2023-08-30T04:12:42;11.75;;;7.43;;
49241;SDS011;35079;52.704;13.814;2023-08-30T04:15:07;9.43;;;8.40;;
49241;SDS011;35079;52.704;13.814;2023-08-30T04:17:34;8.70;;;7.53;;
49241;SDS011;35079;52.704;13.814;2023-08-30T04:20:00;12.63;;;9.23;;
49241;SDS011;35079;52.704;13.814;2023-08-30T04:22:25;9.48;;;7.95;;
49241;SDS011;35079;52.704;13.814;2023-08-30T04:24:51;15.00;;;8.85;;
49241;SDS011;35079;52.704;13.814;2023-08-30T04:27:16;10.75;;;8.15;;
49241;SDS011;35079;52.704;13.814;2023-08-30T04:29:42;13.57;;;8.18;;
49241;SDS011;35079;52.704;13.814;2023-08-30T04:32:10;10.82;;;8.93;;
49241;SDS011;35079;52.704;13.814;2023-08-30T04:34:36;10.35;;;8.40;;
49241;SDS011;35079;52.704;13.814;2023-08-30T04:37:02;11.75;;;8.18;;
49241;SDS011;35079;52.704;13.814;2023-08-30T04:39:28;12.10;;;8.95;;
49241;SDS011;35079;52.704;13.814;2023-08-30T04:41:53;16.15;;;9.38;;
49241;SDS011;35079;52.704;13.814;2023-08-30T04:44:20;12.75;;;8.90;;
49241;SDS011;35079;52.704;13.814;2023-08-30T04:46:49;10.38;;;8.70;;
49241;SDS011;35079;52.704;13.814;2023-08-30T04:49:15;10.65;;;9.07;;
49241;SDS011;35079;52.704;13.814;2023-08-30T04:51:41;12.45;;;8.88;;
49241;SDS011;35079;52.704;13.814;2023-08-30T04:54:07;12.15;;;9.60;;
49241;SDS011;35079;52.704;13.814;2023-08-30T04:56:32;11.68;;;9.27;;
49241;SDS011;35079;52.704;13.814;2023-08-30T04:58:58;12.70;;;9.18;;
49241;SDS011;35079;52.704;13.814;2023-08-30T05:01:23;13.18;;;9.90;;
49241;SDS011;35079;52.704;13.814;2023-08-30T05:03:49;13.55;;;9.63;;
49241;SDS011;35079;52.704;13.814;2023-08-30T05:06:14;14.25;;;9.88;;
49241;SDS011;35079;52.704;13.814;2023-08-30T05:08:41;14.68;;;10.13;;
49241;SDS011;35079;52.704;13.814;2023-08-30T05:11:07;11.38;;;9.27;;
49241;SDS011;35079;52.704;13.814;2023-08-30T05:13:33;17.02;;;10.95;;
49241;SDS011;35079;52.704;13.814;2023-08-30T05:15:58;14.52;;;10.60;;
49241;SDS011;35079;52.704;13.814;2023-08-30T05:18:24;16.75;;;11.50;;
49241;SDS011;35079;52.704;13.814;2023-08-30T05:20:49;24.42;;;11.73;;
49241;SDS011;35079;52.704;13.814;2023-08-30T05:23:15;21.40;;;12.40;;
49241;SDS011;35079;52.704;13.814;2023-08-30T05:25:40;24.20;;;12.35;;
49241;SDS011;35079;52.704;13.814;2023-08-30T05:28:06;16.08;;;11.40;;
49241;SDS011;35079;52.704;13.814;2023-08-30T05:30:32;25.23;;;12.63;;
49241;SDS011;35079;52.704;13.814;2023-08-30T05:32:57;27.13;;;12.32;;
49241;SDS011;35079;52.704;13.814;2023-08-30T05:35:23;29.23;;;12.68;;
49241;SDS011;35079;52.704;13.814;2023-08-30T05:37:48;18.38;;;12.30;;
49241;SDS011;35079;52.704;13.814;2023-08-30T05:40:15;17.10;;;12.85;;
49241;SDS011;35079;52.704;13.814;2023-08-30T05:42:42;19.33;;;13.23;;
49241;SDS011;35079;52.704;13.814;2023-08-30T05:45:08;16.38;;;12.73;;
49241;SDS011;35079;52.704;13.814;2023-08-30T05:47:34;22.85;;;13.73;;
49241;SDS011;35079;52.704;13.814;2023-08-30T05:50:02;21.42;;;13.20;;
49241;SDS011;35079;52.704;13.814;2023-08-30T05:52:27;18.85;;;13.07;;
49241;SDS011;35079;52.704;13.814;2023-08-30T05:54:53;18.70;;;12.65;;
49241;SDS011;35079;52.704;13.814;2023-08-30T05:57:18;16.00;;;12.68;;
49241;SDS011;35079;52.704;13.814;2023-08-30T05:59:47;16.38;;;12.20;;
49241;SDS011;35079;52.704;13.814;2023-08-30T06:02:12;17.05;;;12.35;;
49241;SDS011;35079;52.704;13.814;2023-08-30T06:04:38;15.85;;;11.82;;
49241;SDS011;35079;52.704;13.814;2023-08-30T06:07:04;16.73;;;12.35;;
49241;SDS011;35079;52.704;13.814;2023-08-30T06:09:29;15.95;;;12.32;;
49241;SDS011;35079;52.704;13.814;2023-08-30T06:11:55;16.27;;;12.23;;
49241;SDS011;35079;52.704;13.814;2023-08-30T06:14:21;16.70;;;11.38;;
49241;SDS011;35079;52.704;13.814;2023-08-30T06:16:46;14.43;;;10.80;;
49241;SDS011;35079;52.704;13.814;2023-08-30T06:19:12;14.55;;;10.57;;
49241;SDS011;35079;52.704;13.814;2023-08-30T06:21:38;13.73;;;9.07;;
49241;SDS011;35079;52.704;13.814;2023-08-30T06:24:03;10.90;;;9.13;;
49241;SDS011;35079;52.704;13.814;2023-08-30T06:26:29;9.20;;;8.05;;
49241;SDS011;35079;52.704;13.814;2023-08-30T06:28:55;9.57;;;8.32;;
49241;SDS011;35079;52.704;13.814;2023-08-30T06:31:20;10.70;;;8.07;;
49241;SDS011;35079;52.704;13.814;2023-08-30T06:33:46;11.60;;;7.65;;
49241;SDS011;35079;52.704;13.814;2023-08-30T06:36:13;10.85;;;7.70;;
49241;SDS011;35079;52.704;13.814;2023-08-30T06:38:40;10.68;;;6.88;;
49241;SDS011;35079;52.704;13.814;2023-08-30T06:41:06;11.05;;;7.25;;
49241;SDS011;35079;52.704;13.814;2023-08-30T06:43:32;10.13;;;7.43;;
49241;SDS011;35079;52.704;13.814;2023-08-30T06:45:58;8.27;;;6.57;;
49241;SDS011;35079;52.704;13.814;2023-08-30T06:48:27;9.07;;;7.15;;
49241;SDS011;35079;52.704;13.814;2023-08-30T06:50:52;11.93;;;6.85;;
49241;SDS011;35079;52.704;13.814;2023-08-30T06:53:18;10.25;;;6.95;;
49241;SDS011;35079;52.704;13.814;2023-08-30T06:55:43;8.35;;;6.88;;
49241;SDS011;35079;52.704;13.814;2023-08-30T06:58:09;9.80;;;6.72;;
49241;SDS011;35079;52.704;13.814;2023-08-30T07:00:34;8.40;;;6.93;;
49241;SDS011;35079;52.704;13.814;2023-08-30T07:03:00;9.63;;;6.68;;
49241;SDS011;35079;52.704;13.814;2023-08-30T07:05:26;7.93;;;7.07;;
49241;SDS011;35079;52.704;13.814;2023-08-30T07:07:51;8.35;;;5.95;;
49241;SDS011;35079;52.704;13.814;2023-08-30T07:10:17;7.35;;;5.20;;
49241;SDS011;35079;52.704;13.814;2023-08-30T07:12:43;10.82;;;5.90;;
49241;SDS011;35079;52.704;13.814;2023-08-30T07:15:10;8.30;;;5.88;;
49241;SDS011;35079;52.704;13.814;2023-08-30T07:17:35;7.38;;;5.45;;
49241;SDS011;35079;52.704;13.814;2023-08-30T07:20:01;6.25;;;5.18;;
49241;SDS011;35079;52.704;13.814;2023-08-30T07:22:28;8.73;;;4.95;;
49241;SDS011;35079;52.704;13.814;2023-08-30T07:24:54;6.35;;;4.97;;
49241;SDS011;35079;52.704;13.814;2023-08-30T07:27:19;5.85;;;5.03;;
49241;SDS011;35079;52.704;13.814;2023-08-30T07:29:45;9.68;;;4.93;;
49241;SDS011;35079;52.704;13.814;2023-08-30T07:32:11;6.38;;;4.80;;
49241;SDS011;35079;52.704;13.814;2023-08-30T07:34:36;6.00;;;5.07;;
49241;SDS011;35079;52.704;13.814;2023-08-30T07:37:02;6.47;;;4.78;;
49241;SDS011;35079;52.704;13.814;2023-08-30T07:39:28;5.88;;;4.57;;
49241;SDS011;35079;52.704;13.814;2023-08-30T07:41:53;9.70;;;4.88;;
49241;SDS011;35079;52.704;13.814;2023-08-30T07:44:19;6.50;;;4.45;;
49241;SDS011;35079;52.704;13.814;2023-08-30T07:46:48;8.05;;;5.13;;
49241;SDS011;35079;52.704;13.814;2023-08-30T07:49:14;9.18;;;4.95;;
49241;SDS011;35079;52.704;13.814;2023-08-30T07:51:39;4.82;;;4.43;;
49241;SDS011;35079;52.704;13.814;2023-08-30T07:54:05;4.95;;;4.43;;
49241;SDS011;35079;52.704;13.814;2023-08-30T07:56:31;5.93;;;4.40;;
49241;SDS011;35079;52.704;13.814;2023-08-30T07:58:56;8.65;;;4.57;;
49241;SDS011;35079;52.704;13.814;2023-08-30T08:01:22;6.60;;;4.22;;
49241;SDS011;35079;52.704;13.814;2023-08-30T08:03:47;6.43;;;4.70;;
49241;SDS011;35079;52.704;13.814;2023-08-30T08:06:13;4.97;;;4.28;;
49241;SDS011;35079;52.704;13.814;2023-08-30T08:08:39;8.57;;;4.20;;
49241;SDS011;35079;52.704;13.814;2023-08-30T08:11:04;4.57;;;4.00;;
49241;SDS011;35079;52.704;13.814;2023-08-30T08:13:30;9.43;;;4.15;;
49241;SDS011;35079;52.704;13.814;2023-08-30T08:15:56;5.75;;;4.25;;
49241;SDS011;35079;52.704;13.814;2023-08-30T08:18:22;5.95;;;3.80;;
49241;SDS011;35079;52.704;13.814;2023-08-30T08:20:48;6.03;;;4.00;;
49241;SDS011;35079;52.704;13.814;2023-08-30T08:23:13;4.80;;;3.78;;
49241;SDS011;35079;52.704;13.814;2023-08-30T08:25:39;4.60;;;3.90;;
49241;SDS011;35079;52.704;13.814;2023-08-30T08:28:05;6.13;;;4.20;;
49241;SDS011;35079;52.704;13.814;2023-08-30T08:30:30;5.38;;;3.80;;
49241;SDS011;35079;52.704;13.814;2023-08-30T08:32:57;5.93;;;4.00;;
49241;SDS011;35079;52.704;13.814;2023-08-30T08:35:22;7.72;;;3.30;;
49241;SDS011;35079;52.704;13.814;2023-08-30T08:37:48;4.40;;;2.95;;
49241;SDS011;35079;52.704;13.814;2023-08-30T08:40:14;4.93;;;3.47;;
49241;SDS011;35079;52.704;13.814;2023-08-30T08:42:39;5.00;;;2.97;;
49241;SDS011;35079;52.704;13.814;2023-08-30T08:45:08;7.20;;;3.40;;
49241;SDS011;35079;52.704;13.814;2023-08-30T08:47:36;4.82;;;3.25;;
49241;SDS011;35079;52.704;13.814;2023-08-30T08:50:03;4.50;;;3.40;;
49241;SDS011;35079;52.704;13.814;2023-08-30T08:52:29;7.10;;;3.40;;
49241;SDS011;35079;52.704;13.814;2023-08-30T08:54:55;4.45;;;3.00;;
49241;SDS011;35079;52.704;13.814;2023-08-30T08:57:22;6.15;;;3.08;;
49241;SDS011;35079;52.704;13.814;2023-08-30T08:59:48;4.82;;;2.95;;
49241;SDS011;35079;52.704;13.814;2023-08-30T09:02:15;5.22;;;2.72;;
49241;SDS011;35079;52.704;13.814;2023-08-30T09:04:41;2.65;;;2.30;;
49241;SDS011;35079;52.704;13.814;2023-08-30T09:07:07;3.30;;;2.58;;
49241;SDS011;35079;52.704;13.814;2023-08-30T09:09:33;4.80;;;2.55;;
49241;SDS011;35079;52.704;13.814;2023-08-30T09:11:59;3.92;;;2.88;;
49241;SDS011;35079;52.704;13.814;2023-08-30T09:14:25;3.80;;;2.42;;
49241;SDS011;35079;52.704;13.814;2023-08-30T09:16:54;2.75;;;2.15;;
49241;SDS011;35079;52.704;13.814;2023-08-30T09:19:23;5.13;;;1.95;;
49241;SDS011;35079;52.704;13.814;2023-08-30T09:21:56;4.95;;;2.22;;
49241;SDS011;35079;52.704;13.814;2023-08-30T09:24:23;5.65;;;2.15;;
49241;SDS011;35079;52.704;13.814;2023-08-30T09:26:50;5.00;;;2.28;;
49241;SDS011;35079;52.704;13.814;2023-08-30T09:29:18;4.60;;;2.08;;
49241;SDS011;35079;52.704;13.814;2023-08-30T09:31:45;4.15;;;2.10;;
49241;SDS011;35079;52.704;13.814;2023-08-30T09:34:11;3.67;;;2.00;;
49241;SDS011;35079;52.704;13.814;2023-08-30T09:36:37;2.38;;;1.90;;
49241;SDS011;35079;52.704;13.814;2023-08-30T09:39:11;3.28;;;2.00;;
49241;SDS011;35079;52.704;13.814;2023-08-30T09:41:42;2.72;;;1.90;;
49241;SDS011;35079;52.704;13.814;2023-08-30T09:44:13;1.80;;;1.67;;
49241;SDS011;35079;52.704;13.814;2023-08-30T09:46:40;2.95;;;1.80;;
49241;SDS011;35079;52.704;13.814;2023-08-30T09:49:07;2.33;;;1.52;;
49241;SDS011;35079;52.704;13.814;2023-08-30T09:51:34;3.42;;;1.80;;
49241;SDS011;35079;52.704;13.814;2023-08-30T09:54:04;2.85;;;1.63;;
49241;SDS011;35079;52.704;13.814;2023-08-30T09:56:30;3.42;;;1.45;;
49241;SDS011;35079;52.704;13.814;2023-08-30T09:58:58;3.25;;;1.45;;
49241;SDS011;35079;52.704;13.814;2023-08-30T10:01:27;2.60;;;1.52;;
49241;SDS011;35079;52.704;13.814;2023-08-30T10:03:54;3.00;;;1.30;;
49241;SDS011;35079;52.704;13.814;2023-08-30T10:06:21;1.67;;;1.20;;
49241;SDS011;35079;52.704;13.814;2023-08-30T10:08:49;4.22;;;1.65;;
49241;SDS011;35079;52.704;13.814;2023-08-30T10:11:18;4.30;;;1.50;;
49241;SDS011;35079;52.704;13.814;2023-08-30T10:13:44;2.05;;;1.30;;
49241;SDS011;35079;52.704;13.814;2023-08-30T10:16:14;2.13;;;1.13;;
49241;SDS011;35079;52.704;13.814;2023-08-30T10:18:47;1.30;;;1.20;;
49241;SDS011;35079;52.704;13.814;2023-08-30T10:21:22;3.15;;;1.38;;
49241;SDS011;35079;52.704;13.814;2023-08-30T10:23:49;1.45;;;1.33;;
49241;SDS011;35079;52.704;13.814;2023-08-30T10:26:20;1.70;;;1.10;;
49241;SDS011;35079;52.704;13.814;2023-08-30T10:28:47;1.80;;;1.20;;
49241;SDS011;35079;52.704;13.814;2023-08-30T10:31:13;2.25;;;1.23;;
49241;SDS011;35079;52.704;13.814;2023-08-30T10:33:54;1.60;;;1.20;;
49241;SDS011;35079;52.704;13.814;2023-08-30T10:36:24;2.22;;;1.08;;
49241;SDS011;35079;52.704;13.814;2023-08-30T10:38:51;3.15;;;1.20;;
49241;SDS011;35079;52.704;13.814;2023-08-30T10:41:24;1.20;;;1.10;;
49241;SDS011;35079;52.704;13.814;2023-08-30T10:43:54;1.58;;;1.33;;
49241;SDS011;35079;52.704;13.814;2023-08-30T10:46:33;2.47;;;1.00;;
49241;SDS011;35079;52.704;13.814;2023-08-30T10:49:19;4.40;;;1.15;;
49241;SDS011;35079;52.704;13.814;2023-08-30T10:51:45;1.83;;;1.20;;
49241;SDS011;35079;52.704;13.814;2023-08-30T10:54:19;3.00;;;1.25;;
49241;SDS011;35079;52.704;13.814;2023-08-30T10:56:46;3.70;;;1.30;;
49241;SDS011;35079;52.704;13.814;2023-08-30T10:59:22;2.83;;;1.35;;
49241;SDS011;35079;52.704;13.814;2023-08-30T11:01:50;1.48;;;1.30;;
49241;SDS011;35079;52.704;13.814;2023-08-30T11:04:17;2.47;;;1.30;;
49241;SDS011;35079;52.704;13.814;2023-08-30T11:06:43;2.05;;;1.30;;
49241;SDS011;35079;52.704;13.814;2023-08-30T11:09:14;1.65;;;1.40;;
49241;SDS011;35079;52.704;13.814;2023-08-30T11:11:47;2.58;;;1.20;;
49241;SDS011;35079;52.704;13.814;2023-08-30T11:14:14;2.17;;;1.38;;
49241;SDS011;35079;52.704;13.814;2023-08-30T11:16:41;2.38;;;1.10;;
49241;SDS011;35079;52.704;13.814;2023-08-30T11:19:07;5.78;;;1.70;;
49241;SDS011;35079;52.704;13.814;2023-08-30T11:21:36;6.00;;;1.73;;
49241;SDS011;35079;52.704;13.814;2023-08-30T11:24:06;1.77;;;1.00;;
49241;SDS011;35079;52.704;13.814;2023-08-30T11:26:32;2.35;;;1.08;;
49241;SDS011;35079;52.704;13.814;2023-08-30T11:29:03;1.00;;;1.00;;
49241;SDS011;35079;52.704;13.814;2023-08-30T11:31:29;2.42;;;1.10;;
49241;SDS011;35079;52.704;13.814;2023-08-30T11:33:55;2.63;;;0.90;;
49241;SDS011;35079;52.704;13.814;2023-08-30T11:36:22;3.15;;;1.10;;
49241;SDS011;35079;52.704;13.814;2023-08-30T11:38:50;1.75;;;1.10;;
49241;SDS011;35079;52.704;13.814;2023-08-30T11:41:16;1.40;;;0.88;;
49241;SDS011;35079;52.704;13.814;2023-08-30T11:43:43;8.13;;;1.30;;
49241;SDS011;35079;52.704;13.814;2023-08-30T11:46:09;4.03;;;1.60;;
49241;SDS011;35079;52.704;13.814;2023-08-30T11:48:35;1.55;;;1.20;;
49241;SDS011;35079;52.704;13.814;2023-08-30T11:51:01;1.50;;;1.00;;
49241;SDS011;35079;52.704;13.814;2023-08-30T11:53:27;2.75;;;1.08;;
49241;SDS011;35079;52.704;13.814;2023-08-30T11:55:53;1.70;;;0.98;;
49241;SDS011;35079;52.704;13.814;2023-08-30T11:58:19;2.08;;;1.00;;
49241;SDS011;35079;52.704;13.814;2023-08-30T12:00:45;1.20;;;0.95;;
49241;SDS011;35079;52.704;13.814;2023-08-30T12:03:14;1.40;;;0.90;;
49241;SDS011;35079;52.704;13.814;2023-08-30T12:05:49;1.23;;;0.90;;
49241;SDS011;35079;52.704;13.814;2023-08-30T12:08:25;2.70;;;1.05;;
49241;SDS011;35079;52.704;13.814;2023-08-30T12:10:51;1.88;;;1.10;;
49241;SDS011;35079;52.704;13.814;2023-08-30T12:13:24;2.60;;;1.60;;
49241;SDS011;35079;52.704;13.814;2023-08-30T12:15:51;3.95;;;1.70;;
49241;SDS011;35079;52.704;13.814;2023-08-30T12:18:20;2.88;;;1.20;;
49241;SDS011;35079;52.704;13.814;2023-08-30T12:20:53;2.25;;;1.10;;
49241;SDS011;35079;52.704;13.814;2023-08-30T12:23:26;1.17;;;1.00;;
49241;SDS011;35079;52.704;13.814;2023-08-30T12:26:03;3.83;;;1.35;;
49241;SDS011;35079;52.704;13.814;2023-08-30T12:28:34;2.00;;;1.10;;
49241;SDS011;35079;52.704;13.814;2023-08-30T12:31:04;0.90;;;0.90;;
49241;SDS011;35079;52.704;13.814;2023-08-30T12:33:29;2.20;;;1.20;;
49241;SDS011;35079;52.704;13.814;2023-08-30T12:35:56;3.45;;;1.48;;
49241;SDS011;35079;52.704;13.814;2023-08-30T12:38:22;3.35;;;1.30;;
49241;SDS011;35079;52.704;13.814;2023-08-30T12:40:52;2.80;;;1.40;;
49241;SDS011;35079;52.704;13.814;2023-08-30T12:43:19;1.85;;;1.17;;
49241;SDS011;35079;52.704;13.814;2023-08-30T12:45:45;2.75;;;1.17;;
49241;SDS011;35079;52.704;13.814;2023-08-30T12:48:12;1.50;;;1.20;;
49241;SDS011;35079;52.704;13.814;2023-08-30T12:50:43;1.67;;;1.38;;
49241;SDS011;35079;52.704;13.814;2023-08-30T12:53:10;1.23;;;1.13;;
49241;SDS011;35079;52.704;13.814;2023-08-30T12:55:36;2.47;;;1.30;;
49241;SDS011;35079;52.704;13.814;2023-08-30T12:58:04;1.98;;;1.30;;
49241;SDS011;35079;52.704;13.814;2023-08-30T13:00:30;2.10;;;1.45;;
49241;SDS011;35079;52.704;13.814;2023-08-30T13:02:55;1.35;;;1.25;;
49241;SDS011;35079;52.704;13.814;2023-08-30T13:05:21;1.50;;;1.30;;
49241;SDS011;35079;52.704;13.814;2023-08-30T13:07:47;2.08;;;1.20;;
49241;SDS011;35079;52.704;13.814;2023-08-30T13:10:13;4.13;;;1.30;;
49241;SDS011;35079;52.704;13.814;2023-08-30T13:12:39;1.67;;;1.10;;
49241;SDS011;35079;52.704;13.814;2023-08-30T13:15:06;2.05;;;1.23;;
49241;SDS011;35079;52.704;13.814;2023-08-30T13:17:32;2.72;;;1.40;;
49241;SDS011;35079;52.704;13.814;2023-08-30T13:19:58;2.22;;;1.20;;
49241;SDS011;35079;52.704;13.814;2023-08-30T13:22:24;2.15;;;1.40;;
49241;SDS011;35079;52.704;13.814;2023-08-30T13:24:51;2.30;;;1.40;;
49241;SDS011;35079;52.704;13.814;2023-08-30T13:27:17;1.90;;;1.45;;
49241;SDS011;35079;52.704;13.814;2023-08-30T13:29:43;1.52;;;1.30;;
49241;SDS011;35079;52.704;13.814;2023-08-30T13:32:08;2.80;;;1.20;;
49241;SDS011;35079;52.704;13.814;2023-08-30T13:34:34;1.20;;;1.10;;
49241;SDS011;35079;52.704;13.814;2023-08-30T13:37:00;2.38;;;1.40;;
49241;SDS011;35079;52.704;13.814;2023-08-30T13:39:26;1.65;;;1.15;;
49241;SDS011;35079;52.704;13.814;2023-08-30T13:41:51;2.25;;;1.30;;
49241;SDS011;35079;52.704;13.814;2023-08-30T13:44:17;3.60;;;1.38;;
49241;SDS011;35079;52.704;13.814;2023-08-30T13:46:43;1.35;;;1.23;;
49241;SDS011;35079;52.704;13.814;2023-08-30T13:49:09;2.13;;;1.30;;
49241;SDS011;35079;52.704;13.814;2023-08-30T13:51:35;1.20;;;1.10;;
49241;SDS011;35079;52.704;13.814;2023-08-30T13:54:01;2.20;;;1.38;;
49241;SDS011;35079;52.704;13.814;2023-08-30T13:56:27;1.40;;;1.30;;
49241;SDS011;35079;52.704;13.814;2023-08-30T13:58:55;1.60;;;1.20;;
49241;SDS011;35079;52.704;13.814;2023-08-30T14:01:21;3.42;;;1.45;;
49241;SDS011;35079;52.704;13.814;2023-08-30T14:03:47;2.90;;;1.35;;
49241;SDS011;35079;52.704;13.814;2023-08-30T14:06:12;1.35;;;1.10;;
49241;SDS011;35079;52.704;13.814;2023-08-30T14:08:38;1.48;;;1.10;;
49241;SDS011;35079;52.704;13.814;2023-08-30T14:11:04;1.30;;;1.13;;
49241;SDS011;35079;52.704;13.814;2023-08-30T14:13:29;3.20;;;1.10;;
49241;SDS011;35079;52.704;13.814;2023-08-30T14:16:01;1.30;;;1.20;;
49241;SDS011;35079;52.704;13.814;2023-08-30T14:18:28;2.33;;;1.25;;
49241;SDS011;35079;52.704;13.814;2023-08-30T14:20:57;1.38;;;0.88;;
49241;SDS011;35079;52.704;13.814;2023-08-30T14:23:28;1.65;;;1.30;;
49241;SDS011;35079;52.704;13.814;2023-08-30T14:26:02;3.90;;;1.10;;
49241;SDS011;35079;52.704;13.814;2023-08-30T14:28:35;2.35;;;1.00;;
49241;SDS011;35079;52.704;13.814;2023-08-30T14:31:02;1.23;;;1.00;;
49241;SDS011;35079;52.704;13.814;2023-08-30T14:33:29;2.72;;;1.00;;